Columbus, Ohio
Traffic Map
Current Weather Conditions
Columbus, Ohio
Overcast
Overcast
78°
Feels Like: 80°
Wind Chill: 78° Ceiling: 15000
Heat Index: 80° Visibility: 10mi
Dew Point: 70° Wind: 10mph
Humidity: 76% Direction: 160° (SSE)
Pressure: 30.06in Gusts: 0mph
Raw Report DataKCMH 250051Z 16009KT 10SM FEW055 FEW090 BKN150 OVC220 26/21 A3006 RMK AO2 RAE24 SLP173 P0000 T02560211
Traffic Incident Summary
Active as of:
Severity:
Category:
InformationThere was an issue retrieving the traffic information for this location. Please try a different location or try again shortly.
Advertisements
Track Severe Weather on mobile